sensor_id;sensor_type;location;lat;lon;timestamp;P1;durP1;ratioP1;P2;durP2;ratioP2
76667;SDS011;65585;51.166;16.922;2022-12-05T00:00:04;42.75;;;23.20;;
76667;SDS011;65585;51.166;16.922;2022-12-05T00:02:50;68.70;;;36.63;;
76667;SDS011;65585;51.166;16.922;2022-12-05T00:05:17;62.67;;;30.33;;
76667;SDS011;65585;51.166;16.922;2022-12-05T00:07:43;61.15;;;28.88;;
76667;SDS011;65585;51.166;16.922;2022-12-05T00:10:10;57.60;;;31.52;;
76667;SDS011;65585;51.166;16.922;2022-12-05T00:12:36;61.28;;;34.08;;
76667;SDS011;65585;51.166;16.922;2022-12-05T00:15:02;71.65;;;32.95;;
76667;SDS011;65585;51.166;16.922;2022-12-05T00:17:30;51.60;;;31.23;;
76667;SDS011;65585;51.166;16.922;2022-12-05T00:19:57;62.55;;;29.60;;
76667;SDS011;65585;51.166;16.922;2022-12-05T00:22:23;66.50;;;33.35;;
76667;SDS011;65585;51.166;16.922;2022-12-05T00:24:49;60.78;;;34.70;;
76667;SDS011;65585;51.166;16.922;2022-12-05T00:27:15;62.00;;;34.15;;
76667;SDS011;65585;51.166;16.922;2022-12-05T00:29:42;64.60;;;30.33;;
76667;SDS011;65585;51.166;16.922;2022-12-05T00:32:08;52.63;;;30.73;;
76667;SDS011;65585;51.166;16.922;2022-12-05T00:34:34;57.63;;;32.50;;
76667;SDS011;65585;51.166;16.922;2022-12-05T00:37:00;62.72;;;32.55;;
76667;SDS011;65585;51.166;16.922;2022-12-05T00:39:27;59.63;;;30.85;;
76667;SDS011;65585;51.166;16.922;2022-12-05T00:41:55;58.90;;;31.63;;
76667;SDS011;65585;51.166;16.922;2022-12-05T00:44:22;43.65;;;25.52;;
76667;SDS011;65585;51.166;16.922;2022-12-05T00:46:48;54.92;;;32.25;;
76667;SDS011;65585;51.166;16.922;2022-12-05T00:49:14;62.60;;;31.05;;
76667;SDS011;65585;51.166;16.922;2022-12-05T00:51:41;58.75;;;30.25;;
76667;SDS011;65585;51.166;16.922;2022-12-05T00:54:09;41.92;;;24.55;;
76667;SDS011;65585;51.166;16.922;2022-12-05T00:56:39;65.75;;;30.27;;
76667;SDS011;65585;51.166;16.922;2022-12-05T00:59:06;48.85;;;25.70;;
76667;SDS011;65585;51.166;16.922;2022-12-05T01:01:37;53.55;;;28.77;;
76667;SDS011;65585;51.166;16.922;2022-12-05T01:04:07;64.57;;;31.80;;
76667;SDS011;65585;51.166;16.922;2022-12-05T01:06:37;48.75;;;21.98;;
76667;SDS011;65585;51.166;16.922;2022-12-05T01:09:04;48.88;;;22.95;;
76667;SDS011;65585;51.166;16.922;2022-12-05T01:11:30;62.25;;;28.67;;
76667;SDS011;65585;51.166;16.922;2022-12-05T01:13:57;59.28;;;27.45;;
76667;SDS011;65585;51.166;16.922;2022-12-05T01:16:25;59.53;;;29.15;;
76667;SDS011;65585;51.166;16.922;2022-12-05T01:18:54;50.78;;;23.88;;
76667;SDS011;65585;51.166;16.922;2022-12-05T01:21:24;57.15;;;26.50;;
76667;SDS011;65585;51.166;16.922;2022-12-05T01:23:50;55.63;;;27.23;;
76667;SDS011;65585;51.166;16.922;2022-12-05T01:26:17;49.47;;;24.63;;
76667;SDS011;65585;51.166;16.922;2022-12-05T01:28:45;62.85;;;28.83;;
76667;SDS011;65585;51.166;16.922;2022-12-05T01:33:47;57.88;;;25.13;;
76667;SDS011;65585;51.166;16.922;2022-12-05T01:36:13;66.43;;;28.90;;
76667;SDS011;65585;51.166;16.922;2022-12-05T01:38:40;48.58;;;23.08;;
76667;SDS011;65585;51.166;16.922;2022-12-05T01:41:07;47.08;;;21.90;;
76667;SDS011;65585;51.166;16.922;2022-12-05T01:43:59;61.63;;;21.05;;
76667;SDS011;65585;51.166;16.922;2022-12-05T01:46:34;43.67;;;21.13;;
76667;SDS011;65585;51.166;16.922;2022-12-05T01:49:06;56.65;;;24.50;;
76667;SDS011;65585;51.166;16.922;2022-12-05T01:51:36;64.32;;;29.40;;
76667;SDS011;65585;51.166;16.922;2022-12-05T01:54:05;67.72;;;28.27;;
76667;SDS011;65585;51.166;16.922;2022-12-05T01:56:32;57.47;;;28.98;;
76667;SDS011;65585;51.166;16.922;2022-12-05T01:59:00;56.75;;;21.80;;
76667;SDS011;65585;51.166;16.922;2022-12-05T02:01:27;51.75;;;24.50;;
76667;SDS011;65585;51.166;16.922;2022-12-05T02:03:55;60.70;;;27.58;;
76667;SDS011;65585;51.166;16.922;2022-12-05T02:06:23;61.72;;;26.70;;
76667;SDS011;65585;51.166;16.922;2022-12-05T02:08:50;56.90;;;27.35;;
76667;SDS011;65585;51.166;16.922;2022-12-05T02:11:17;53.15;;;28.83;;
76667;SDS011;65585;51.166;16.922;2022-12-05T02:13:51;66.85;;;29.25;;
76667;SDS011;65585;51.166;16.922;2022-12-05T02:16:39;55.55;;;25.05;;
76667;SDS011;65585;51.166;16.922;2022-12-05T02:19:23;54.47;;;24.80;;
76667;SDS011;65585;51.166;16.922;2022-12-05T02:22:02;53.28;;;24.70;;
76667;SDS011;65585;51.166;16.922;2022-12-05T02:27:29;53.80;;;25.15;;
76667;SDS011;65585;51.166;16.922;2022-12-05T02:32:48;42.13;;;20.42;;
76667;SDS011;65585;51.166;16.922;2022-12-05T02:38:30;52.08;;;24.30;;
76667;SDS011;65585;51.166;16.922;2022-12-05T02:42:07;50.22;;;23.55;;
76667;SDS011;65585;51.166;16.922;2022-12-05T02:46:48;54.45;;;23.52;;
76667;SDS011;65585;51.166;16.922;2022-12-05T02:49:18;50.45;;;24.17;;
76667;SDS011;65585;51.166;16.922;2022-12-05T02:51:51;45.78;;;20.90;;
76667;SDS011;65585;51.166;16.922;2022-12-05T02:54:40;44.75;;;24.20;;
76667;SDS011;65585;51.166;16.922;2022-12-05T02:57:06;55.92;;;25.05;;
76667;SDS011;65585;51.166;16.922;2022-12-05T02:59:33;50.92;;;23.75;;
76667;SDS011;65585;51.166;16.922;2022-12-05T03:01:59;31.35;;;16.23;;
76667;SDS011;65585;51.166;16.922;2022-12-05T03:04:25;44.05;;;19.48;;
76667;SDS011;65585;51.166;16.922;2022-12-05T03:06:53;43.63;;;22.80;;
76667;SDS011;65585;51.166;16.922;2022-12-05T03:09:48;46.85;;;23.05;;
76667;SDS011;65585;51.166;16.922;2022-12-05T03:12:22;42.88;;;21.25;;
76667;SDS011;65585;51.166;16.922;2022-12-05T03:14:52;44.90;;;21.35;;
76667;SDS011;65585;51.166;16.922;2022-12-05T03:17:23;41.33;;;20.20;;
76667;SDS011;65585;51.166;16.922;2022-12-05T03:20:01;39.50;;;21.67;;
76667;SDS011;65585;51.166;16.922;2022-12-05T03:23:04;42.15;;;18.60;;
76667;SDS011;65585;51.166;16.922;2022-12-05T03:25:25;41.58;;;19.35;;
76667;SDS011;65585;51.166;16.922;2022-12-05T03:28:08;43.15;;;20.42;;
76667;SDS011;65585;51.166;16.922;2022-12-05T03:30:39;48.28;;;19.85;;
76667;SDS011;65585;51.166;16.922;2022-12-05T03:33:09;43.92;;;21.13;;
76667;SDS011;65585;51.166;16.922;2022-12-05T03:35:50;38.55;;;18.55;;
76667;SDS011;65585;51.166;16.922;2022-12-05T03:38:27;43.17;;;22.38;;
76667;SDS011;65585;51.166;16.922;2022-12-05T03:41:10;37.55;;;19.98;;
76667;SDS011;65585;51.166;16.922;2022-12-05T03:43:45;44.38;;;20.95;;
76667;SDS011;65585;51.166;16.922;2022-12-05T03:51:25;33.10;;;16.05;;
76667;SDS011;65585;51.166;16.922;2022-12-05T03:53:57;34.00;;;17.23;;
76667;SDS011;65585;51.166;16.922;2022-12-05T03:56:29;36.67;;;18.67;;
76667;SDS011;65585;51.166;16.922;2022-12-05T03:59:02;37.58;;;19.58;;
76667;SDS011;65585;51.166;16.922;2022-12-05T04:01:31;40.55;;;21.65;;
76667;SDS011;65585;51.166;16.922;2022-12-05T04:03:59;36.88;;;20.70;;
76667;SDS011;65585;51.166;16.922;2022-12-05T04:08:59;33.55;;;17.38;;
76667;SDS011;65585;51.166;16.922;2022-12-05T04:11:28;29.48;;;14.43;;
76667;SDS011;65585;51.166;16.922;2022-12-05T04:14:07;39.58;;;17.38;;
76667;SDS011;65585;51.166;16.922;2022-12-05T04:16:58;31.10;;;16.10;;
76667;SDS011;65585;51.166;16.922;2022-12-05T04:19:38;37.38;;;19.15;;
76667;SDS011;65585;51.166;16.922;2022-12-05T04:22:24;37.67;;;19.48;;
76667;SDS011;65585;51.166;16.922;2022-12-05T04:24:54;35.92;;;19.95;;
76667;SDS011;65585;51.166;16.922;2022-12-05T04:30:22;41.22;;;19.88;;
76667;SDS011;65585;51.166;16.922;2022-12-05T04:35:30;40.38;;;19.85;;
76667;SDS011;65585;51.166;16.922;2022-12-05T04:38:05;34.83;;;16.92;;
76667;SDS011;65585;51.166;16.922;2022-12-05T04:40:57;37.30;;;17.77;;
76667;SDS011;65585;51.166;16.922;2022-12-05T04:43:26;38.63;;;19.83;;
76667;SDS011;65585;51.166;16.922;2022-12-05T04:45:54;39.17;;;19.33;;
76667;SDS011;65585;51.166;16.922;2022-12-05T04:48:21;41.53;;;18.33;;
76667;SDS011;65585;51.166;16.922;2022-12-05T04:50:49;37.97;;;19.58;;
76667;SDS011;65585;51.166;16.922;2022-12-05T04:53:17;38.47;;;20.08;;
76667;SDS011;65585;51.166;16.922;2022-12-05T04:55:45;34.40;;;18.20;;
76667;SDS011;65585;51.166;16.922;2022-12-05T04:58:20;36.65;;;18.58;;
76667;SDS011;65585;51.166;16.922;2022-12-05T05:06:25;36.80;;;19.20;;
76667;SDS011;65585;51.166;16.922;2022-12-05T05:08:53;41.17;;;19.58;;
76667;SDS011;65585;51.166;16.922;2022-12-05T05:11:22;35.92;;;16.73;;
76667;SDS011;65585;51.166;16.922;2022-12-05T05:13:50;35.47;;;17.40;;
76667;SDS011;65585;51.166;16.922;2022-12-05T05:16:21;37.70;;;18.15;;
76667;SDS011;65585;51.166;16.922;2022-12-05T05:18:49;36.50;;;17.55;;
76667;SDS011;65585;51.166;16.922;2022-12-05T05:21:26;40.67;;;19.48;;
76667;SDS011;65585;51.166;16.922;2022-12-05T05:23:59;36.72;;;20.13;;
76667;SDS011;65585;51.166;16.922;2022-12-05T05:26:26;35.97;;;17.90;;
76667;SDS011;65585;51.166;16.922;2022-12-05T05:28:53;37.95;;;18.83;;
76667;SDS011;65585;51.166;16.922;2022-12-05T05:31:20;38.72;;;18.90;;
76667;SDS011;65585;51.166;16.922;2022-12-05T05:33:49;30.38;;;17.35;;
76667;SDS011;65585;51.166;16.922;2022-12-05T05:36:18;35.35;;;18.60;;
76667;SDS011;65585;51.166;16.922;2022-12-05T05:38:46;40.05;;;19.05;;
76667;SDS011;65585;51.166;16.922;2022-12-05T05:41:15;39.85;;;19.73;;
76667;SDS011;65585;51.166;16.922;2022-12-05T05:43:52;38.88;;;19.25;;
76667;SDS011;65585;51.166;16.922;2022-12-05T05:46:20;36.63;;;20.40;;
76667;SDS011;65585;51.166;16.922;2022-12-05T05:48:48;37.30;;;18.73;;
76667;SDS011;65585;51.166;16.922;2022-12-05T05:51:15;38.45;;;20.10;;
76667;SDS011;65585;51.166;16.922;2022-12-05T05:53:42;86.13;;;41.00;;
76667;SDS011;65585;51.166;16.922;2022-12-05T05:56:11;63.67;;;32.22;;
76667;SDS011;65585;51.166;16.922;2022-12-05T05:58:38;40.58;;;23.30;;
76667;SDS011;65585;51.166;16.922;2022-12-05T06:01:12;44.10;;;24.80;;
76667;SDS011;65585;51.166;16.922;2022-12-05T06:03:43;45.45;;;24.23;;
76667;SDS011;65585;51.166;16.922;2022-12-05T06:06:11;44.40;;;26.45;;
76667;SDS011;65585;51.166;16.922;2022-12-05T06:15:57;36.60;;;19.38;;
76667;SDS011;65585;51.166;16.922;2022-12-05T06:18:23;40.05;;;20.83;;
76667;SDS011;65585;51.166;16.922;2022-12-05T06:20:51;46.25;;;25.45;;
76667;SDS011;65585;51.166;16.922;2022-12-05T06:23:21;41.58;;;23.23;;
76667;SDS011;65585;51.166;16.922;2022-12-05T06:25:49;44.55;;;22.90;;
76667;SDS011;65585;51.166;16.922;2022-12-05T06:28:16;42.92;;;23.38;;
76667;SDS011;65585;51.166;16.922;2022-12-05T06:30:44;45.15;;;22.23;;
76667;SDS011;65585;51.166;16.922;2022-12-05T06:33:10;40.85;;;23.60;;
76667;SDS011;65585;51.166;16.922;2022-12-05T06:35:36;39.05;;;20.52;;
76667;SDS011;65585;51.166;16.922;2022-12-05T06:38:03;46.38;;;24.30;;
76667;SDS011;65585;51.166;16.922;2022-12-05T06:40:31;42.05;;;20.20;;
76667;SDS011;65585;51.166;16.922;2022-12-05T06:42:58;46.88;;;23.52;;
76667;SDS011;65585;51.166;16.922;2022-12-05T06:45:24;39.35;;;22.75;;
76667;SDS011;65585;51.166;16.922;2022-12-05T06:47:51;41.63;;;21.23;;
76667;SDS011;65585;51.166;16.922;2022-12-05T06:50:18;43.88;;;21.45;;
76667;SDS011;65585;51.166;16.922;2022-12-05T06:52:44;38.15;;;20.25;;
76667;SDS011;65585;51.166;16.922;2022-12-05T06:55:10;39.70;;;18.77;;
76667;SDS011;65585;51.166;16.922;2022-12-05T06:57:37;33.92;;;19.05;;
76667;SDS011;65585;51.166;16.922;2022-12-05T07:00:03;39.20;;;19.10;;
76667;SDS011;65585;51.166;16.922;2022-12-05T07:02:49;28.92;;;17.88;;
76667;SDS011;65585;51.166;16.922;2022-12-05T07:05:16;34.63;;;17.92;;
76667;SDS011;65585;51.166;16.922;2022-12-05T07:07:42;35.45;;;19.20;;
76667;SDS011;65585;51.166;16.922;2022-12-05T07:10:08;32.38;;;16.88;;
76667;SDS011;65585;51.166;16.922;2022-12-05T07:12:35;31.42;;;16.08;;
76667;SDS011;65585;51.166;16.922;2022-12-05T07:15:01;37.15;;;18.60;;
76667;SDS011;65585;51.166;16.922;2022-12-05T07:17:28;33.60;;;17.55;;
76667;SDS011;65585;51.166;16.922;2022-12-05T07:19:54;29.95;;;15.52;;
76667;SDS011;65585;51.166;16.922;2022-12-05T07:22:21;37.00;;;18.33;;
76667;SDS011;65585;51.166;16.922;2022-12-05T07:24:47;35.08;;;17.23;;
76667;SDS011;65585;51.166;16.922;2022-12-05T07:27:16;32.45;;;18.58;;
76667;SDS011;65585;51.166;16.922;2022-12-05T07:29:42;27.73;;;15.88;;
76667;SDS011;65585;51.166;16.922;2022-12-05T07:32:08;30.98;;;17.60;;
76667;SDS011;65585;51.166;16.922;2022-12-05T07:34:34;37.67;;;19.33;;
76667;SDS011;65585;51.166;16.922;2022-12-05T07:37:00;33.28;;;17.27;;
76667;SDS011;65585;51.166;16.922;2022-12-05T07:39:27;28.95;;;15.48;;
76667;SDS011;65585;51.166;16.922;2022-12-05T07:41:53;31.08;;;17.02;;
76667;SDS011;65585;51.166;16.922;2022-12-05T07:44:19;31.55;;;15.35;;
76667;SDS011;65585;51.166;16.922;2022-12-05T07:46:48;34.70;;;17.10;;
76667;SDS011;65585;51.166;16.922;2022-12-05T07:49:17;33.40;;;17.40;;
76667;SDS011;65585;51.166;16.922;2022-12-05T07:51:44;33.63;;;16.80;;
76667;SDS011;65585;51.166;16.922;2022-12-05T07:54:10;29.63;;;16.45;;
76667;SDS011;65585;51.166;16.922;2022-12-05T07:56:37;37.03;;;18.73;;
76667;SDS011;65585;51.166;16.922;2022-12-05T07:59:02;35.33;;;20.10;;
76667;SDS011;65585;51.166;16.922;2022-12-05T08:01:30;32.67;;;17.23;;
76667;SDS011;65585;51.166;16.922;2022-12-05T08:03:56;37.92;;;19.17;;
76667;SDS011;65585;51.166;16.922;2022-12-05T08:06:25;37.83;;;17.48;;
76667;SDS011;65585;51.166;16.922;2022-12-05T08:08:53;29.23;;;17.23;;
76667;SDS011;65585;51.166;16.922;2022-12-05T08:11:21;34.50;;;16.63;;
76667;SDS011;65585;51.166;16.922;2022-12-05T08:13:59;35.85;;;18.40;;
76667;SDS011;65585;51.166;16.922;2022-12-05T08:16:27;35.63;;;19.23;;
76667;SDS011;65585;51.166;16.922;2022-12-05T08:18:57;39.22;;;20.30;;
76667;SDS011;65585;51.166;16.922;2022-12-05T08:21:28;37.55;;;19.27;;
76667;SDS011;65585;51.166;16.922;2022-12-05T08:23:55;34.47;;;18.45;;
76667;SDS011;65585;51.166;16.922;2022-12-05T08:26:22;30.40;;;17.10;;
76667;SDS011;65585;51.166;16.922;2022-12-05T08:28:53;37.10;;;20.83;;
76667;SDS011;65585;51.166;16.922;2022-12-05T08:31:21;32.13;;;16.67;;
76667;SDS011;65585;51.166;16.922;2022-12-05T08:33:48;37.95;;;20.17;;
76667;SDS011;65585;51.166;16.922;2022-12-05T08:36:16;38.65;;;19.35;;
76667;SDS011;65585;51.166;16.922;2022-12-05T08:38:43;40.08;;;19.50;;
76667;SDS011;65585;51.166;16.922;2022-12-05T08:41:11;30.88;;;17.65;;
76667;SDS011;65585;51.166;16.922;2022-12-05T08:43:38;32.50;;;18.35;;
76667;SDS011;65585;51.166;16.922;2022-12-05T08:46:05;36.15;;;20.10;;
76667;SDS011;65585;51.166;16.922;2022-12-05T08:48:32;36.55;;;20.38;;
76667;SDS011;65585;51.166;16.922;2022-12-05T08:51:09;32.70;;;17.50;;
76667;SDS011;65585;51.166;16.922;2022-12-05T08:53:37;37.65;;;19.73;;
76667;SDS011;65585;51.166;16.922;2022-12-05T08:56:06;29.88;;;17.85;;
76667;SDS011;65585;51.166;16.922;2022-12-05T09:01:07;33.60;;;16.73;;
76667;SDS011;65585;51.166;16.922;2022-12-05T09:03:33;33.75;;;19.63;;
76667;SDS011;65585;51.166;16.922;2022-12-05T09:08:56;31.40;;;16.58;;
76667;SDS011;65585;51.166;16.922;2022-12-05T09:11:26;32.55;;;18.23;;
76667;SDS011;65585;51.166;16.922;2022-12-05T09:13:55;38.78;;;19.48;;
76667;SDS011;65585;51.166;16.922;2022-12-05T09:16:24;38.00;;;20.52;;
76667;SDS011;65585;51.166;16.922;2022-12-05T09:18:54;39.63;;;20.52;;
76667;SDS011;65585;51.166;16.922;2022-12-05T09:21:22;36.40;;;20.88;;
76667;SDS011;65585;51.166;16.922;2022-12-05T09:23:50;43.90;;;21.85;;
76667;SDS011;65585;51.166;16.922;2022-12-05T09:26:18;32.95;;;20.90;;
76667;SDS011;65585;51.166;16.922;2022-12-05T09:28:46;34.70;;;19.13;;
76667;SDS011;65585;51.166;16.922;2022-12-05T09:31:13;39.20;;;21.50;;
76667;SDS011;65585;51.166;16.922;2022-12-05T09:33:42;33.53;;;19.40;;
76667;SDS011;65585;51.166;16.922;2022-12-05T09:36:16;35.90;;;19.88;;
76667;SDS011;65585;51.166;16.922;2022-12-05T09:38:43;35.63;;;20.05;;
76667;SDS011;65585;51.166;16.922;2022-12-05T09:43:45;35.25;;;20.92;;
76667;SDS011;65585;51.166;16.922;2022-12-05T09:46:35;39.72;;;21.77;;
76667;SDS011;65585;51.166;16.922;2022-12-05T09:49:13;32.35;;;17.75;;
76667;SDS011;65585;51.166;16.922;2022-12-05T09:51:42;38.97;;;21.58;;
76667;SDS011;65585;51.166;16.922;2022-12-05T09:54:10;38.03;;;20.85;;
76667;SDS011;65585;51.166;16.922;2022-12-05T09:56:37;38.95;;;21.65;;
76667;SDS011;65585;51.166;16.922;2022-12-05T09:59:08;42.53;;;21.02;;
76667;SDS011;65585;51.166;16.922;2022-12-05T10:01:40;39.00;;;21.15;;
76667;SDS011;65585;51.166;16.922;2022-12-05T10:04:32;38.70;;;21.88;;
76667;SDS011;65585;51.166;16.922;2022-12-05T10:15:28;39.38;;;20.58;;
76667;SDS011;65585;51.166;16.922;2022-12-05T10:20:30;32.13;;;20.02;;
76667;SDS011;65585;51.166;16.922;2022-12-05T10:23:11;34.15;;;18.60;;
76667;SDS011;65585;51.166;16.922;2022-12-05T10:25:41;39.78;;;21.75;;
76667;SDS011;65585;51.166;16.922;2022-12-05T10:28:17;39.33;;;20.70;;
76667;SDS011;65585;51.166;16.922;2022-12-05T10:30:55;44.33;;;24.35;;
76667;SDS011;65585;51.166;16.922;2022-12-05T10:33:21;38.20;;;22.48;;
76667;SDS011;65585;51.166;16.922;2022-12-05T10:35:48;34.05;;;18.77;;
76667;SDS011;65585;51.166;16.922;2022-12-05T10:38:28;39.25;;;21.17;;
76667;SDS011;65585;51.166;16.922;2022-12-05T10:40:59;39.10;;;22.67;;
76667;SDS011;65585;51.166;16.922;2022-12-05T10:43:31;45.42;;;24.92;;
76667;SDS011;65585;51.166;16.922;2022-12-05T10:45:58;44.50;;;24.67;;
76667;SDS011;65585;51.166;16.922;2022-12-05T10:48:25;46.25;;;25.30;;
76667;SDS011;65585;51.166;16.922;2022-12-05T10:50:55;46.92;;;24.80;;
76667;SDS011;65585;51.166;16.922;2022-12-05T10:53:27;45.10;;;22.98;;
76667;SDS011;65585;51.166;16.922;2022-12-05T10:55:59;44.70;;;23.17;;
76667;SDS011;65585;51.166;16.922;2022-12-05T10:58:26;49.15;;;25.17;;
76667;SDS011;65585;51.166;16.922;2022-12-05T11:00:57;48.03;;;25.20;;
76667;SDS011;65585;51.166;16.922;2022-12-05T11:03:36;43.47;;;22.50;;
76667;SDS011;65585;51.166;16.922;2022-12-05T11:06:36;46.42;;;23.65;;
76667;SDS011;65585;51.166;16.922;2022-12-05T11:09:18;50.47;;;24.92;;
76667;SDS011;65585;51.166;16.922;2022-12-05T11:11:56;45.17;;;22.77;;
76667;SDS011;65585;51.166;16.922;2022-12-05T11:14:30;39.58;;;24.02;;
76667;SDS011;65585;51.166;16.922;2022-12-05T11:16:58;43.25;;;23.65;;
76667;SDS011;65585;51.166;16.922;2022-12-05T11:19:27;50.53;;;25.52;;
76667;SDS011;65585;51.166;16.922;2022-12-05T11:24:21;49.38;;;24.45;;
76667;SDS011;65585;51.166;16.922;2022-12-05T11:26:50;39.42;;;23.35;;
76667;SDS011;65585;51.166;16.922;2022-12-05T11:29:33;49.38;;;23.50;;
76667;SDS011;65585;51.166;16.922;2022-12-05T11:32:05;52.10;;;25.48;;
76667;SDS011;65585;51.166;16.922;2022-12-05T11:37:12;51.00;;;24.67;;
76667;SDS011;65585;51.166;16.922;2022-12-05T11:39:41;53.38;;;26.63;;
76667;SDS011;65585;51.166;16.922;2022-12-05T11:42:20;49.05;;;26.10;;
76667;SDS011;65585;51.166;16.922;2022-12-05T11:50:54;51.08;;;26.30;;
76667;SDS011;65585;51.166;16.922;2022-12-05T11:56:19;54.95;;;28.25;;
76667;SDS011;65585;51.166;16.922;2022-12-05T12:15:01;52.30;;;26.38;;
76667;SDS011;65585;51.166;16.922;2022-12-05T12:32:12;56.45;;;28.50;;
76667;SDS011;65585;51.166;16.922;2022-12-05T12:34:51;54.17;;;26.20;;
76667;SDS011;65585;51.166;16.922;2022-12-05T12:37:51;52.70;;;27.38;;
76667;SDS011;65585;51.166;16.922;2022-12-05T12:48:42;51.80;;;28.38;;
76667;SDS011;65585;51.166;16.922;2022-12-05T12:51:17;53.13;;;27.35;;
76667;SDS011;65585;51.166;16.922;2022-12-05T12:59:13;58.10;;;28.60;;
76667;SDS011;65585;51.166;16.922;2022-12-05T13:01:49;58.00;;;29.15;;
76667;SDS011;65585;51.166;16.922;2022-12-05T13:04:23;54.63;;;26.85;;
76667;SDS011;65585;51.166;16.922;2022-12-05T13:07:00;51.63;;;28.80;;
76667;SDS011;65585;51.166;16.922;2022-12-05T13:12:12;48.65;;;26.83;;
76667;SDS011;65585;51.166;16.922;2022-12-05T13:14:40;53.78;;;27.98;;
76667;SDS011;65585;51.166;16.922;2022-12-05T13:17:16;51.92;;;27.00;;
76667;SDS011;65585;51.166;16.922;2022-12-05T13:19:45;55.70;;;28.48;;
76667;SDS011;65585;51.166;16.922;2022-12-05T13:22:15;53.60;;;26.55;;
76667;SDS011;65585;51.166;16.922;2022-12-05T13:24:43;56.25;;;26.50;;
76667;SDS011;65585;51.166;16.922;2022-12-05T13:27:19;52.45;;;28.23;;
76667;SDS011;65585;51.166;16.922;2022-12-05T13:32:34;53.10;;;25.30;;
76667;SDS011;65585;51.166;16.922;2022-12-05T13:35:09;51.28;;;25.15;;
76667;SDS011;65585;51.166;16.922;2022-12-05T13:37:43;54.30;;;27.35;;
76667;SDS011;65585;51.166;16.922;2022-12-05T13:40:30;47.95;;;26.38;;
76667;SDS011;65585;51.166;16.922;2022-12-05T13:43:25;50.80;;;27.35;;
76667;SDS011;65585;51.166;16.922;2022-12-05T13:46:01;51.28;;;25.17;;
76667;SDS011;65585;51.166;16.922;2022-12-05T13:48:37;53.70;;;28.00;;
76667;SDS011;65585;51.166;16.922;2022-12-05T13:51:10;57.20;;;29.10;;
76667;SDS011;65585;51.166;16.922;2022-12-05T13:53:49;49.88;;;27.33;;
76667;SDS011;65585;51.166;16.922;2022-12-05T13:56:44;50.63;;;27.70;;
76667;SDS011;65585;51.166;16.922;2022-12-05T14:07:44;58.63;;;26.58;;
76667;SDS011;65585;51.166;16.922;2022-12-05T14:10:21;54.50;;;27.33;;
76667;SDS011;65585;51.166;16.922;2022-12-05T14:12:49;49.38;;;27.55;;
76667;SDS011;65585;51.166;16.922;2022-12-05T14:15:28;49.72;;;26.50;;
76667;SDS011;65585;51.166;16.922;2022-12-05T14:29:00;56.63;;;25.30;;
76667;SDS011;65585;51.166;16.922;2022-12-05T14:31:57;49.50;;;26.45;;
76667;SDS011;65585;51.166;16.922;2022-12-05T14:40:02;57.10;;;28.55;;
76667;SDS011;65585;51.166;16.922;2022-12-05T14:42:51;50.38;;;28.38;;
76667;SDS011;65585;51.166;16.922;2022-12-05T14:45:23;51.85;;;26.58;;
76667;SDS011;65585;51.166;16.922;2022-12-05T14:47:54;54.58;;;27.77;;
76667;SDS011;65585;51.166;16.922;2022-12-05T14:56:09;58.20;;;30.80;;
76667;SDS011;65585;51.166;16.922;2022-12-05T14:58:45;62.38;;;31.92;;
76667;SDS011;65585;51.166;16.922;2022-12-05T15:01:56;59.10;;;32.40;;
76667;SDS011;65585;51.166;16.922;2022-12-05T15:07:41;64.78;;;32.92;;
76667;SDS011;65585;51.166;16.922;2022-12-05T15:10:12;63.47;;;33.15;;
76667;SDS011;65585;51.166;16.922;2022-12-05T15:12:48;67.20;;;33.85;;
76667;SDS011;65585;51.166;16.922;2022-12-05T15:23:57;56.35;;;33.10;;
76667;SDS011;65585;51.166;16.922;2022-12-05T15:26:26;60.40;;;32.78;;
76667;SDS011;65585;51.166;16.922;2022-12-05T15:31:29;60.00;;;35.35;;
76667;SDS011;65585;51.166;16.922;2022-12-05T15:33:58;58.40;;;33.60;;
76667;SDS011;65585;51.166;16.922;2022-12-05T15:36:31;53.40;;;31.45;;
76667;SDS011;65585;51.166;16.922;2022-12-05T15:39:05;54.88;;;29.52;;
76667;SDS011;65585;51.166;16.922;2022-12-05T15:41:42;66.65;;;32.47;;
76667;SDS011;65585;51.166;16.922;2022-12-05T15:44:10;65.95;;;37.50;;
76667;SDS011;65585;51.166;16.922;2022-12-05T15:46:36;70.03;;;38.97;;
76667;SDS011;65585;51.166;16.922;2022-12-05T15:49:14;68.25;;;36.33;;
76667;SDS011;65585;51.166;16.922;2022-12-05T15:51:43;66.93;;;36.85;;
76667;SDS011;65585;51.166;16.922;2022-12-05T15:54:10;69.80;;;39.63;;
76667;SDS011;65585;51.166;16.922;2022-12-05T15:56:41;69.43;;;38.63;;
76667;SDS011;65585;51.166;16.922;2022-12-05T15:59:21;69.75;;;36.72;;
76667;SDS011;65585;51.166;16.922;2022-12-05T16:02:17;69.78;;;39.53;;
76667;SDS011;65585;51.166;16.922;2022-12-05T16:04:48;72.35;;;42.42;;
76667;SDS011;65585;51.166;16.922;2022-12-05T16:07:15;87.18;;;44.78;;
76667;SDS011;65585;51.166;16.922;2022-12-05T16:09:42;83.10;;;43.45;;
76667;SDS011;65585;51.166;16.922;2022-12-05T16:12:23;70.00;;;41.15;;
76667;SDS011;65585;51.166;16.922;2022-12-05T16:14:56;75.75;;;38.65;;
76667;SDS011;65585;51.166;16.922;2022-12-05T16:17:25;65.20;;;34.95;;
76667;SDS011;65585;51.166;16.922;2022-12-05T16:20:40;68.18;;;37.17;;
76667;SDS011;65585;51.166;16.922;2022-12-05T16:22:48;67.88;;;35.92;;
76667;SDS011;65585;51.166;16.922;2022-12-05T16:25:17;71.15;;;36.05;;
76667;SDS011;65585;51.166;16.922;2022-12-05T16:30:31;69.65;;;36.33;;
76667;SDS011;65585;51.166;16.922;2022-12-05T16:33:00;68.35;;;38.75;;
76667;SDS011;65585;51.166;16.922;2022-12-05T16:35:41;75.25;;;39.15;;
76667;SDS011;65585;51.166;16.922;2022-12-05T16:38:17;72.10;;;38.10;;
76667;SDS011;65585;51.166;16.922;2022-12-05T16:40:59;59.97;;;30.50;;
76667;SDS011;65585;51.166;16.922;2022-12-05T16:46:42;53.05;;;29.17;;
76667;SDS011;65585;51.166;16.922;2022-12-05T16:48:44;51.83;;;26.88;;
76667;SDS011;65585;51.166;16.922;2022-12-05T16:51:18;53.90;;;27.10;;
76667;SDS011;65585;51.166;16.922;2022-12-05T16:53:51;51.85;;;30.52;;
76667;SDS011;65585;51.166;16.922;2022-12-05T16:56:25;51.95;;;29.13;;
76667;SDS011;65585;51.166;16.922;2022-12-05T16:58:56;51.33;;;27.02;;
76667;SDS011;65585;51.166;16.922;2022-12-05T17:01:24;57.45;;;30.80;;
76667;SDS011;65585;51.166;16.922;2022-12-05T17:03:51;54.30;;;27.27;;
76667;SDS011;65585;51.166;16.922;2022-12-05T17:06:18;50.22;;;26.42;;
76667;SDS011;65585;51.166;16.922;2022-12-05T17:08:46;54.00;;;27.80;;
76667;SDS011;65585;51.166;16.922;2022-12-05T17:11:23;54.58;;;29.75;;
76667;SDS011;65585;51.166;16.922;2022-12-05T17:13:52;50.63;;;28.33;;
76667;SDS011;65585;51.166;16.922;2022-12-05T17:16:18;50.55;;;28.50;;
76667;SDS011;65585;51.166;16.922;2022-12-05T17:18:45;56.28;;;30.95;;
76667;SDS011;65585;51.166;16.922;2022-12-05T17:21:13;45.95;;;26.90;;
76667;SDS011;65585;51.166;16.922;2022-12-05T17:23:41;50.92;;;26.38;;
76667;SDS011;65585;51.166;16.922;2022-12-05T17:26:08;53.05;;;27.05;;